createdAt,value
2018-08-06T00:02:04.848Z,99.90
2018-08-06T00:05:09.444Z,99.90
2018-08-06T00:08:14.211Z,99.90
2018-08-06T00:11:19.440Z,99.90
2018-08-06T00:14:24.240Z,99.90
2018-08-06T00:17:28.785Z,99.90
2018-08-06T00:20:33.459Z,99.90
2018-08-06T00:23:38.038Z,99.90
2018-08-06T00:26:42.863Z,99.90
2018-08-06T00:29:47.356Z,99.90
2018-08-06T00:32:52.513Z,99.90
2018-08-06T00:35:56.674Z,99.90
2018-08-06T00:39:01.258Z,99.90
2018-08-06T00:42:06.558Z,99.90
2018-08-06T00:45:12.603Z,99.90
2018-08-06T00:48:17.455Z,99.90
2018-08-06T00:51:22.058Z,99.90
2018-08-06T00:54:26.927Z,99.90
2018-08-06T00:57:31.356Z,99.90
2018-08-06T01:00:35.459Z,99.90
2018-08-06T01:03:39.743Z,99.90
2018-08-06T01:06:44.564Z,99.90
2018-08-06T01:09:49.009Z,99.90
2018-08-06T01:12:53.321Z,99.90
2018-08-06T01:15:57.840Z,99.90
2018-08-06T01:19:02.185Z,99.90
2018-08-06T01:22:06.515Z,99.90
2018-08-06T01:25:10.994Z,99.90
2018-08-06T01:28:15.494Z,99.90
2018-08-06T01:31:20.211Z,99.90
2018-08-06T01:34:24.783Z,99.90
2018-08-06T01:37:29.862Z,99.90
2018-08-06T01:40:34.409Z,99.90
2018-08-06T01:43:38.745Z,99.90
2018-08-06T01:46:43.260Z,99.90
2018-08-06T01:49:47.729Z,99.90
2018-08-06T01:52:52.206Z,99.90
2018-08-06T01:55:56.426Z,99.90
2018-08-06T01:59:00.952Z,99.90
2018-08-06T02:02:06.376Z,99.90
2018-08-06T02:05:11.484Z,99.90
2018-08-06T02:08:16.352Z,99.90
2018-08-06T02:11:20.880Z,99.90
2018-08-06T02:14:25.793Z,99.90
2018-08-06T02:17:30.689Z,99.90
2018-08-06T02:20:35.388Z,99.90
2018-08-06T02:23:40.718Z,99.90
2018-08-06T02:26:45.525Z,99.90
2018-08-06T02:29:50.358Z,99.90
2018-08-06T02:32:55.239Z,99.90
2018-08-06T02:36:00.010Z,99.90
2018-08-06T02:39:06.673Z,99.90
2018-08-06T02:42:11.952Z,99.90
2018-08-06T02:45:16.969Z,99.90
2018-08-06T02:48:21.619Z,99.90
2018-08-06T02:51:26.451Z,99.90
2018-08-06T02:54:31.076Z,99.90
2018-08-06T02:57:35.524Z,99.90
2018-08-06T03:00:40.560Z,99.90
2018-08-06T03:03:45.688Z,99.90
2018-08-06T03:06:50.306Z,99.90
2018-08-06T03:09:54.788Z,99.90
2018-08-06T03:12:59.184Z,99.90
2018-08-06T03:16:03.924Z,99.90
2018-08-06T03:19:09.655Z,99.90
2018-08-06T03:22:14.225Z,99.90
2018-08-06T03:25:19.237Z,99.90
2018-08-06T03:28:23.702Z,99.90
2018-08-06T03:31:28.554Z,99.90
2018-08-06T03:34:33.117Z,99.90
2018-08-06T03:37:37.686Z,99.90
2018-08-06T03:40:42.436Z,99.90
2018-08-06T03:43:46.897Z,99.90
2018-08-06T03:46:52.482Z,99.90
2018-08-06T03:49:56.945Z,99.90
2018-08-06T03:53:01.614Z,99.90
2018-08-06T03:56:06.517Z,99.90
2018-08-06T03:59:11.229Z,99.90
2018-08-06T04:02:15.792Z,99.90
2018-08-06T04:05:20.136Z,99.90
2018-08-06T04:08:26.066Z,99.90
2018-08-06T04:14:34.507Z,99.90
2018-08-06T04:17:39.527Z,99.90
2018-08-06T04:20:44.261Z,99.90
2018-08-06T04:23:49.040Z,99.90
2018-08-06T04:26:53.868Z,99.90
2018-08-06T04:29:58.883Z,99.90
2018-08-06T04:33:03.719Z,99.90
2018-08-06T04:36:08.035Z,99.90
2018-08-06T04:39:12.696Z,99.90
2018-08-06T04:42:17.628Z,99.90
2018-08-06T04:45:22.339Z,99.90
2018-08-06T04:51:30.876Z,99.90
2018-08-06T04:54:36.366Z,99.90
2018-08-06T04:57:41.179Z,99.90
2018-08-06T05:00:45.432Z,99.90
2018-08-06T05:03:50.228Z,99.90
2018-08-06T05:06:54.558Z,99.90
2018-08-06T05:13:03.768Z,99.90
2018-08-06T05:16:08.085Z,99.90
2018-08-06T05:19:12.508Z,99.90
2018-08-06T05:22:16.903Z,99.90
2018-08-06T05:25:21.638Z,99.90
2018-08-06T05:28:26.430Z,99.90
2018-08-06T05:31:30.721Z,99.90
2018-08-06T05:34:34.938Z,99.90
2018-08-06T05:37:39.450Z,99.90
2018-08-06T05:40:44.203Z,99.90
2018-08-06T05:43:49.982Z,99.90
2018-08-06T05:46:54.362Z,99.90
2018-08-06T05:49:59.373Z,99.90
2018-08-06T05:53:03.799Z,99.90
2018-08-06T05:56:09.465Z,99.90
2018-08-06T05:59:13.675Z,99.90
2018-08-06T06:02:17.851Z,99.90
2018-08-06T06:05:22.169Z,99.90
2018-08-06T06:08:26.712Z,99.90
2018-08-06T06:11:31.033Z,99.90
2018-08-06T06:14:36.946Z,99.90
2018-08-06T06:17:42.175Z,99.90
2018-08-06T06:20:46.760Z,99.90
2018-08-06T06:23:51.521Z,99.90
2018-08-06T06:26:55.830Z,99.90
2018-08-06T06:30:00.343Z,99.90
2018-08-06T06:33:04.801Z,99.90
2018-08-06T06:36:09.292Z,99.90
2018-08-06T06:39:14.089Z,99.90
2018-08-06T06:42:18.948Z,95.20
2018-08-06T06:45:23.315Z,92.20
2018-08-06T06:48:27.845Z,85.00
2018-08-06T06:51:32.519Z,79.40
2018-08-06T06:54:37.009Z,72.80
2018-08-06T06:57:41.906Z,70.30
2018-08-06T07:00:46.500Z,64.40
2018-08-06T07:03:51.053Z,59.70
2018-08-06T07:06:55.732Z,57.20
2018-08-06T07:10:00.795Z,54.90
2018-08-06T07:13:05.868Z,54.10
2018-08-06T07:16:10.512Z,54.60
2018-08-06T07:19:14.960Z,51.10
2018-08-06T07:22:19.547Z,48.80
2018-08-06T07:25:24.304Z,48.50
2018-08-06T07:28:29.012Z,50.70
2018-08-06T07:31:35.682Z,50.80
2018-08-06T07:34:40.143Z,53.80
2018-08-06T07:37:44.528Z,56.30
2018-08-06T07:40:49.728Z,59.30
2018-08-06T07:43:54.416Z,54.50
2018-08-06T07:46:59.953Z,53.00
2018-08-06T07:50:05.279Z,50.50
2018-08-06T07:53:10.536Z,50.50
2018-08-06T07:56:15.229Z,49.50
2018-08-06T07:59:19.504Z,49.80
2018-08-06T08:02:24.293Z,48.00
2018-08-06T08:05:28.936Z,47.80
2018-08-06T08:08:33.642Z,47.20
2018-08-06T08:11:38.535Z,46.70
2018-08-06T08:14:42.820Z,44.40
2018-08-06T08:17:47.931Z,44.20
2018-08-06T08:20:52.559Z,42.80
2018-08-06T08:23:57.179Z,42.50
2018-08-06T08:27:01.792Z,44.60
2018-08-06T08:30:07.425Z,45.80
2018-08-06T08:33:12.258Z,44.90
2018-08-06T08:36:16.680Z,43.10
2018-08-06T08:39:21.414Z,41.60
2018-08-06T08:42:25.927Z,42.30
2018-08-06T08:45:30.383Z,42.10
2018-08-06T08:48:35.031Z,43.50
2018-08-06T08:51:39.451Z,42.30
2018-08-06T08:54:44.216Z,44.00
2018-08-06T08:57:48.698Z,40.90
2018-08-06T09:00:53.106Z,40.90
2018-08-06T09:03:57.563Z,40.90
2018-08-06T09:07:01.699Z,44.30
2018-08-06T09:10:07.324Z,45.90
2018-08-06T09:13:11.716Z,44.50
2018-08-06T09:16:16.518Z,48.50
2018-08-06T09:19:21.410Z,47.50
2018-08-06T09:22:25.751Z,44.80
2018-08-06T09:25:30.300Z,44.70
2018-08-06T09:28:34.564Z,43.50
2018-08-06T09:31:38.753Z,44.50
2018-08-06T09:34:43.011Z,45.50
2018-08-06T09:37:47.801Z,45.90
2018-08-06T09:43:56.518Z,45.00
2018-08-06T09:47:01.405Z,45.00
2018-08-06T09:50:08.483Z,45.30
2018-08-06T09:53:13.482Z,43.40
2018-08-06T10:02:26.598Z,44.30
2018-08-06T10:05:31.352Z,43.40
2018-08-06T10:08:36.189Z,44.20
2018-08-06T10:11:40.976Z,43.40
2018-08-06T10:14:45.570Z,44.00
2018-08-06T10:17:51.341Z,43.20
2018-08-06T10:20:56.003Z,42.10
2018-08-06T10:24:00.340Z,43.60
2018-08-06T10:27:05.690Z,44.80
2018-08-06T10:30:13.843Z,44.20
2018-08-06T10:33:18.697Z,44.30
2018-08-06T10:36:23.256Z,44.40
2018-08-06T10:39:28.123Z,44.10
2018-08-06T10:42:33.194Z,44.70
2018-08-06T10:45:37.737Z,45.30
2018-08-06T10:48:43.839Z,44.30
2018-08-06T10:51:48.774Z,44.90
2018-08-06T10:54:53.696Z,45.70
2018-08-06T10:57:58.384Z,45.50
2018-08-06T11:01:03.955Z,44.50
2018-08-06T11:04:09.099Z,44.60
2018-08-06T11:07:13.834Z,45.70
2018-08-06T11:10:21.711Z,46.20
2018-08-06T11:13:26.335Z,46.30
2018-08-06T11:16:31.136Z,45.00
2018-08-06T11:19:35.746Z,45.10
2018-08-06T11:22:41.280Z,46.20
2018-08-06T11:28:50.198Z,47.20
2018-08-06T11:31:54.641Z,45.10
2018-08-06T11:34:59.017Z,45.40
2018-08-06T11:38:03.234Z,45.50
2018-08-06T11:41:08.562Z,44.50
2018-08-06T11:44:12.934Z,44.00
2018-08-06T11:47:17.985Z,45.30
2018-08-06T11:50:22.660Z,47.50
2018-08-06T11:53:27.232Z,46.80
2018-08-06T11:56:32.091Z,47.80
2018-08-06T11:59:36.958Z,47.80
2018-08-06T12:02:42.054Z,48.10
2018-08-06T12:05:46.715Z,48.80
2018-08-06T12:08:51.413Z,48.70
2018-08-06T12:11:55.913Z,48.70
2018-08-06T12:15:00.490Z,48.60
2018-08-06T12:18:05.410Z,49.00
2018-08-06T12:21:09.598Z,50.20
2018-08-06T12:24:15.076Z,50.50
2018-08-06T12:27:19.357Z,49.90
2018-08-06T12:30:24.031Z,48.80
2018-08-06T12:36:32.381Z,48.70
2018-08-06T12:39:36.954Z,49.00
2018-08-06T12:42:41.751Z,49.90
2018-08-06T12:45:46.148Z,49.70
2018-08-06T12:48:51.204Z,50.30
2018-08-06T12:51:55.807Z,50.30
2018-08-06T12:55:00.380Z,49.10
2018-08-06T12:58:05.266Z,49.20
2018-08-06T13:01:09.604Z,49.40
2018-08-06T13:04:13.918Z,49.30
2018-08-06T13:07:18.364Z,49.60
2018-08-06T13:10:22.585Z,47.90
2018-08-06T13:13:26.783Z,47.90
2018-08-06T13:16:31.435Z,48.00
2018-08-06T13:19:35.657Z,47.60
2018-08-06T13:22:40.256Z,47.80
2018-08-06T13:25:44.430Z,48.50
2018-08-06T13:28:48.598Z,47.70
2018-08-06T13:31:53.292Z,48.20
2018-08-06T13:34:58.422Z,48.60
2018-08-06T13:38:02.751Z,48.20
2018-08-06T13:41:07.082Z,47.70
2018-08-06T13:44:11.311Z,47.30
2018-08-06T13:47:15.587Z,47.70
2018-08-06T13:50:19.746Z,47.70
2018-08-06T13:53:24.598Z,47.50
2018-08-06T13:56:28.992Z,47.60
2018-08-06T13:59:33.286Z,47.80
2018-08-06T14:02:37.726Z,47.60
2018-08-06T14:05:42.045Z,47.90
2018-08-06T14:08:46.423Z,46.90
2018-08-06T14:11:50.689Z,46.90
2018-08-06T14:14:54.883Z,46.80
2018-08-06T14:17:59.101Z,46.40
2018-08-06T14:21:03.352Z,46.70
2018-08-06T14:24:07.604Z,46.60
2018-08-06T14:27:11.782Z,47.10
2018-08-06T14:30:17.001Z,47.10
2018-08-06T14:33:21.262Z,47.30
2018-08-06T14:36:25.525Z,47.00
2018-08-06T14:39:29.687Z,46.60
2018-08-06T14:42:34.105Z,46.30
2018-08-06T14:45:38.804Z,46.40
2018-08-06T14:48:43.166Z,46.30
2018-08-06T14:51:47.455Z,46.30
2018-08-06T14:54:51.641Z,46.00
2018-08-06T14:57:55.831Z,45.90
2018-08-06T15:01:00.227Z,46.10
2018-08-06T15:04:04.611Z,46.10
2018-08-06T15:07:08.790Z,45.90
2018-08-06T15:10:14.377Z,45.40
2018-08-06T15:13:18.528Z,45.20
2018-08-06T15:16:22.704Z,45.90
2018-08-06T15:19:26.921Z,45.50
2018-08-06T15:22:31.147Z,45.20
2018-08-06T15:25:35.461Z,45.20
2018-08-06T15:28:39.810Z,45.50
2018-08-06T15:31:44.731Z,45.50
2018-08-06T15:34:48.983Z,45.50
2018-08-06T15:37:53.485Z,45.00
2018-08-06T15:40:57.758Z,45.40
2018-08-06T15:44:02.022Z,45.10
2018-08-06T15:47:06.367Z,45.20
2018-08-06T15:50:13.743Z,45.30
2018-08-06T15:53:18.748Z,45.00
2018-08-06T15:56:22.964Z,45.00
2018-08-06T15:59:27.143Z,45.10
2018-08-06T16:02:31.367Z,45.20
2018-08-06T16:05:35.557Z,44.90
2018-08-06T16:08:39.862Z,45.10
2018-08-06T16:11:44.011Z,45.10
2018-08-06T16:14:48.242Z,45.00
2018-08-06T16:17:52.498Z,45.20
2018-08-06T16:20:56.637Z,45.80
2018-08-06T16:24:00.840Z,45.10
2018-08-06T16:27:05.046Z,45.10
2018-08-06T16:30:26.336Z,44.80
2018-08-06T16:33:30.568Z,45.00
2018-08-06T16:36:34.792Z,45.00
2018-08-06T16:39:39.391Z,44.80
2018-08-06T16:45:47.534Z,45.00
2018-08-06T16:48:51.748Z,45.30
2018-08-06T16:51:55.984Z,45.30
2018-08-06T16:55:00.223Z,45.10
2018-08-06T16:58:04.512Z,45.20
2018-08-06T17:01:08.722Z,45.30
2018-08-06T17:04:12.972Z,45.30
2018-08-06T17:07:17.286Z,45.60
2018-08-06T17:10:22.157Z,45.40
2018-08-06T17:13:26.823Z,45.30
2018-08-06T17:16:31.642Z,45.10
2018-08-06T17:19:35.849Z,45.20
2018-08-06T17:22:40.780Z,45.50
2018-08-06T17:25:45.353Z,45.20
2018-08-06T17:28:49.644Z,45.40
2018-08-06T17:31:53.829Z,45.60
2018-08-06T17:34:58.320Z,45.80
2018-08-06T17:38:02.548Z,45.70
2018-08-06T17:41:07.256Z,45.90
2018-08-06T17:44:11.557Z,45.60
2018-08-06T17:47:15.915Z,46.00
2018-08-06T17:50:21.665Z,46.00
2018-08-06T17:53:25.995Z,46.40
2018-08-06T17:56:30.260Z,46.20
2018-08-06T17:59:34.891Z,46.60
2018-08-06T18:02:39.828Z,46.50
2018-08-06T18:05:44.484Z,46.70
2018-08-06T18:08:49.451Z,47.00
2018-08-06T18:11:54.301Z,47.10
2018-08-06T18:14:58.561Z,47.00
2018-08-06T18:18:02.839Z,47.30
2018-08-06T18:21:07.455Z,47.50
2018-08-06T18:24:11.751Z,47.40
2018-08-06T18:27:16.105Z,47.90
2018-08-06T18:30:22.382Z,47.90
2018-08-06T18:33:26.572Z,48.10
2018-08-06T18:36:30.800Z,48.30
2018-08-06T18:39:35.070Z,48.50
2018-08-06T18:42:39.391Z,48.90
2018-08-06T18:45:44.110Z,49.50
2018-08-06T18:48:48.505Z,49.80
2018-08-06T18:51:52.726Z,50.70
2018-08-06T18:54:56.959Z,50.20
2018-08-06T19:01:22.977Z,50.80
2018-08-06T19:04:27.333Z,51.20
2018-08-06T19:07:31.793Z,51.60
2018-08-06T19:10:35.954Z,51.50
2018-08-06T19:13:45.624Z,52.00
2018-08-06T19:16:51.089Z,52.40
2018-08-06T19:19:55.489Z,52.40
2018-08-06T19:26:03.933Z,52.70
2018-08-06T19:29:08.207Z,52.80
2018-08-06T19:32:12.366Z,53.00
2018-08-06T19:35:16.589Z,53.10
2018-08-06T19:38:20.898Z,54.20
2018-08-06T19:41:25.922Z,54.40
2018-08-06T19:44:30.334Z,55.00
2018-08-06T19:47:34.665Z,55.50
2018-08-06T19:50:40.779Z,56.30
2018-08-06T19:53:45.234Z,56.70
2018-08-06T19:56:50.256Z,57.70
2018-08-06T19:59:54.532Z,58.40
2018-08-06T20:02:59.147Z,58.50
2018-08-06T20:06:03.876Z,58.90
2018-08-06T20:09:11.794Z,58.80
2018-08-06T20:12:16.270Z,58.80
2018-08-06T20:15:20.910Z,58.80
2018-08-06T20:18:25.485Z,59.00
2018-08-06T20:21:29.789Z,59.50
2018-08-06T20:24:34.156Z,59.80
2018-08-06T20:27:38.343Z,60.60
2018-08-06T20:30:42.765Z,61.90
2018-08-06T20:33:46.929Z,62.30
2018-08-06T20:36:51.696Z,62.90
2018-08-06T20:39:56.001Z,63.30
2018-08-06T20:43:00.398Z,64.20
2018-08-06T20:46:05.084Z,65.00
2018-08-06T20:49:09.352Z,64.90
2018-08-06T20:52:14.339Z,65.30
2018-08-06T20:55:19.725Z,64.80
2018-08-06T20:58:24.255Z,65.10
2018-08-06T21:01:28.773Z,65.50
2018-08-06T21:04:33.136Z,65.70
2018-08-06T21:07:38.552Z,66.20
2018-08-06T21:14:17.153Z,66.10
2018-08-06T21:17:22.134Z,68.20
2018-08-06T21:20:26.659Z,67.70
2018-08-06T21:23:31.124Z,68.00
2018-08-06T21:26:35.395Z,68.90
2018-08-06T21:29:39.736Z,70.60
2018-08-06T21:32:50.555Z,71.10
2018-08-06T21:35:55.032Z,72.10
2018-08-06T21:39:00.320Z,72.30
2018-08-06T21:42:04.662Z,74.00
2018-08-06T21:45:09.486Z,75.40
2018-08-06T21:48:13.867Z,74.40
2018-08-06T21:51:18.467Z,75.00
2018-08-06T21:54:24.319Z,75.00
2018-08-06T21:57:28.550Z,75.00
2018-08-06T22:00:41.788Z,74.70
2018-08-06T22:03:46.008Z,74.70
2018-08-06T22:06:50.428Z,75.50
2018-08-06T22:09:55.095Z,75.80
2018-08-06T22:12:59.422Z,76.30
2018-08-06T22:16:04.111Z,77.20
2018-08-06T22:19:10.200Z,77.70
2018-08-06T22:22:19.561Z,78.50
2018-08-06T22:25:24.240Z,79.20
2018-08-06T22:28:28.675Z,80.40
2018-08-06T22:31:33.428Z,82.70
2018-08-06T22:34:38.110Z,83.30
2018-08-06T22:37:43.311Z,85.20
2018-08-06T22:40:48.049Z,85.40
2018-08-06T22:43:52.913Z,85.70
2018-08-06T22:46:57.343Z,86.60
2018-08-06T22:50:01.794Z,87.50
2018-08-06T22:53:06.553Z,88.40
2018-08-06T22:56:11.379Z,89.20
2018-08-06T22:59:15.626Z,89.90
2018-08-06T23:02:20.091Z,90.30
2018-08-06T23:05:25.070Z,90.60
2018-08-06T23:08:30.260Z,90.90
2018-08-06T23:11:34.949Z,91.20
2018-08-06T23:14:39.631Z,91.70
2018-08-06T23:17:44.830Z,92.00
2018-08-06T23:20:49.428Z,93.20
2018-08-06T23:23:53.836Z,93.10
2018-08-06T23:26:58.487Z,93.20
2018-08-06T23:30:03.378Z,94.10
2018-08-06T23:33:07.809Z,94.70
2018-08-06T23:36:12.198Z,94.50
2018-08-06T23:39:16.667Z,94.90
2018-08-06T23:42:21.141Z,94.90
2018-08-06T23:45:25.774Z,95.60
2018-08-06T23:48:30.173Z,96.00
2018-08-06T23:51:35.465Z,95.60
2018-08-06T23:54:40.039Z,95.90
2018-08-06T23:57:44.537Z,96.30
